Terminal Aerodrome Forecast
Issued by NWS

Home | Current Version | Previous Version | Text Only | Print | Product List | Glossary On
Versions: 1 2 3 4 5 6 7 8 9 10 11 12 13
000
FTUS46 KEKA 281129
TAFUKI
TAF
KUKI 281129Z 2812/2912 00000KT P6SM BKN150
     FM281900 24008KT P6SM OVC150
     FM282200 27010G18KT P6SM OVC150
     FM290200 29005KT P6SM BKN200
     FM290900 20007KT P6SM SCT010 BKN050
     FM291100 20010KT 6SM -RA BKN010 OVC020=

USA.gov is the U.S. government's official web portal to all federal, state and local government web resources and services.